GMMEGMMH

Guest
Details From GMME - SALE
To GMMH - DAKHLA
Flight Number -
Tags generated
Created
Modified
Stats Distance 792 nm / 1,466 km
Max Altitude 34,000 ft / 10,363 m
Waypoints 8
Social Downloads 0
Likes 0
Share VATSIM

Download

Looking for another format? Having issues loading an existing format? Contact us
Advertisement - Login to hide

Notes

Basic altitude profile: - Ascent Rate: 2500ft/min - Ascent Speed: 250kts - Cruise Altitude: 35000ft - Cruise Speed: 420kts - Descent Rate: 1500ft/min - Descent Speed: 250kts Options: - Use NATs: yes - Use PACOTS: yes - Use low airways: no - Use high airways: yes

Route

GMME BIBAD UN869 ADM UA600 LAY UA600F CABEL GMMH

ID Type Via Altitude Latitude Longitude Leg Dist Tot Dist Heading (true) Name
O GMME APT - 0 ft / 0 m 34.05147˚ -6.75152˚ - 0 nm - SALE
BIBAD FIX - 30,000 ft / 9,144 m 32.85472˚ -7.62056˚ 84 nm 84 nm 211° / 211° -
ADM VOR UN869 (AWY-HI) 34,000 ft / 10,363 m 30.32194˚ -9.38333˚ 176 nm 260 nm 211° / 210° AGADIR VOR-DME
SOLNA FIX UA600 (AWY-HI) 34,000 ft / 10,363 m 27.66667˚ -12.59528˚ 232 nm 492 nm 227° / 226° -
LAY VOR UA600 (AWY-HI) 34,000 ft / 10,363 m 27.14285˚ -13.21795˚ 45 nm 538 nm 227° / 226° LAAYOUNE VOR-DME
ARENA FIX UA600F (AWY-HI) 30,700 ft / 9,357 m 25.72809˚ -14.35859˚ 104 nm 643 nm 216° / 216° -
CABEL FIX UA600F (AWY-HI) 24,500 ft / 7,468 m 25.00000˚ -14.94114˚ 53 nm 697 nm 216° / 216° -
O GMMH APT - 0 ft / 0 m 23.71829˚ -15.93199˚ 94 nm 791 nm 215° / 215° DAKHLA

Altitude Profile

Advertisement - Login to hide

Weather


0- 5 10 15 20 25 30 35+ Temperature / ° C

Clouds and Precipitation
Forecast for 2018-05-23 12:00 UTC. Updated 2 hours ago

Ground ~20,000 ft ~40,000 ft Winds

GMME

Details ICAO GMME (RBA)
Name SALE
Region Morocco
Timezone Africa/Casablanca (UTC+0.0)
Stats Elevation 276 ft / 84 m (AMSL)
Location 34.051468° -6.751519°
Runways 1
Magnetic Variation 1.501° W

METAR

GMME 231330Z 34008KT 320V020 8000 OVC020 20/14 Q1014

Decode

TAF

TAF GMME 231100Z 2312/2418 34013KT 8000 BKN023 PROB30 TEMPO 2322/2412 22009KT RA BKN015 OVC023

Decode

Departure Runways

ID Width Length Bearing (true) Bearing (mag) Surface Threshold Offset Overrun Length
04 148 ft / 45 m 11,503 ft / 3,506 m 31.24° 32.74° Asphalt 0 ft / 0 m 197 ft / 60 m
22 148 ft / 45 m 11,503 ft / 3,506 m 211.25° 212.75° Asphalt 0 ft / 0 m 197 ft / 60 m

GMMH

Details ICAO GMMH (VIL)
Name DAKHLA
Region Morocco
Timezone Africa/El_Aaiun (UTC+0.0)
Stats Elevation 36 ft / 11 m (AMSL)
Location 23.718294° -15.931993°
Runways 1
Magnetic Variation 5.218° W

METAR

GMMH 231300Z 01015KT CAVOK 22/15 Q1017 NOSIG

Decode

TAF

TAF GMMH 231100Z 2312/2418 36016KT CAVOK PROB30 2400/2406 4000 BR SCT008

Decode

Destination Runways

ID Width Length Bearing (true) Bearing (mag) Surface Threshold Offset Overrun Length
03 148 ft / 45 m 9,886 ft / 3,013 m 22.66° 27.88° Asphalt 0 ft / 0 m 323 ft / 98 m
21 148 ft / 45 m 9,886 ft / 3,013 m 202.67° 207.89° Asphalt 0 ft / 0 m 377 ft / 115 m

Popular Alternatives